KBLH/BLH METAR and TAF weather

Enter ICAO airport designator
Station Type Date Time Source
KBLH METAR 2021/01/22 06:52 UTC NOAA

KBLH 220652Z AUTO 20005KT 10SM CLR 13/11 A2999 RMK AO2 SLP153 T01280106


Station Type Date Time Source
KBLH Decoded METAR 2021/01/22 06:52 UTC NOAA

BLYTHE AIRPORT, CA, United States (KBLH) 33-37N 114-43W 119M
Jan 22, 2021 - 01:52 AM EST / 2021.01.22 0652 UTC
Wind: from the SSW (200 degrees) at 6 MPH (5 KT):0
Visibility: 10 mile(s):0
Sky conditions: clear
Temperature: 55.0 F (12.8 C)
Dew Point: 51.1 F (10.6 C)
Relative Humidity: 86%
Pressure (altimeter): 29.99 in. Hg (1015 hPa)
ob: KBLH 220652Z AUTO 20005KT 10SM CLR 13/11 A2999 RMK AO2 SLP153 T01280106
cycle: 7

Station Type Date Time Source
KBLH TAF 2021/01/22 06:30 UTC NOAA

TAF KBLH 220528Z 2206/2306 20003KT P6SM FEW070
FM221700 20015G23KT P6SM FEW060 SCT250

Example: see airport list